METAR Data
IDs: Format: Raw Decoded Include TAF

Data at: 1642 UTC 03 Jul 2020

METAR for:KELA (Eagle Lake Arpt, TX, US)
Text:KELA 031635Z AUTO 24004KT 10SM BKN029 BKN037 32/25 A3002 RMK AO2 T03200249
Temperature: 32.0°C ( 90°F)
Dewpoint: 24.9°C ( 77°F) [RH = 66%]
Pressure (altimeter):30.02 inches Hg (1016.7 mb)
Winds:from the WSW (240 degrees) at 5 MPH (4 knots; 2.1 m/s)
Visibility:10 or more sm (16+ km)
Ceiling:2900 feet AGL
Clouds: broken clouds at 2900 feet AGL, broken clouds at 3700 feet AGL
QC Flag:automated observation with no human augmentation

TAF for:KELA (Eagle Lake Arpt, TX, US)
Text:No data found